Westboro, Ohio
Current Conditions -  °F | °C
As of 1:54 PM on Thursday 30 Oct 2014 (Local Time) from KILN Reporting Station
Broken Clouds Broken Clouds  
Wind Chill: 52°   Ceiling: 3800
Heat Index: 52°   Visibility: 10mi
Dew Point: 32°   Wind: 6mph
Humidity: 47%   Direction: 20°NNE
Pressure: 30.11"   Gusts: NA
Location:  39.2883°N, 83.8861°W
Report Text: KILN 301754Z AUTO 02005KT 10SM BKN038 11/00 A3011 RMK AO2 SLP207 T01110000 10111 20050 58018
Loading
Personal Weather Stations






























Interactive Weather Map
Tropical Storm Tracking
New forecast layout! Learn more

10-Day Weather Forecast

Advertisements
Track Severe Weather on mobile